Current Weather

Sydney Intl

Sydney Intl, Australia (YSSY)

Report from: Tuesday, August 16, 2022 11:30 AM AEST
Current time: Tuesday, August 16, 2022 11:56 AM AEST

Nearby weather
Weather history
Weather forecast

Temperature18.0°C (64.4°F)
Dew point5.0°C (41.0°F)
Winds 13 kts (6.7 m/s, 15 mph) West (280°)
Clouds Sky clear
Altimeter29.80 in.Hg (1009 mB)
Relative humidity42 %
Density altitude625 ft. (191 m)
Remarks Ceiling and visibility OK
Flight conditions Visual Meteorological Conditions
Raw dataYSSY 160130Z 28013KT CAVOK 18/05 Q1009
An error has occurred. This application may no longer respond until reloaded. Reload 🗙